sensor_id;sensor_type;location;lat;lon;timestamp;P1;durP1;ratioP1;P2;durP2;ratioP2
79375;SDS011;68846;53.150;18.136;2023-05-16T00:01:54;7.50;;;6.60;;
79375;SDS011;68846;53.150;18.136;2023-05-16T00:04:20;11.90;;;8.50;;
79375;SDS011;68846;53.150;18.136;2023-05-16T00:06:46;9.50;;;7.10;;
79375;SDS011;68846;53.150;18.136;2023-05-16T00:09:12;8.70;;;6.50;;
79375;SDS011;68846;53.150;18.136;2023-05-16T00:11:38;7.10;;;5.30;;
79375;SDS011;68846;53.150;18.136;2023-05-16T00:14:05;7.60;;;5.50;;
79375;SDS011;68846;53.150;18.136;2023-05-16T00:16:31;5.80;;;5.00;;
79375;SDS011;68846;53.150;18.136;2023-05-16T00:18:57;5.90;;;5.10;;
79375;SDS011;68846;53.150;18.136;2023-05-16T00:21:25;9.20;;;6.00;;
79375;SDS011;68846;53.150;18.136;2023-05-16T00:23:51;8.20;;;6.20;;
79375;SDS011;68846;53.150;18.136;2023-05-16T00:26:18;7.50;;;6.10;;
79375;SDS011;68846;53.150;18.136;2023-05-16T00:28:44;9.30;;;6.60;;
79375;SDS011;68846;53.150;18.136;2023-05-16T00:31:11;6.00;;;5.30;;
79375;SDS011;68846;53.150;18.136;2023-05-16T00:33:37;6.30;;;4.90;;
79375;SDS011;68846;53.150;18.136;2023-05-16T00:36:03;5.40;;;4.80;;
79375;SDS011;68846;53.150;18.136;2023-05-16T00:38:30;6.10;;;4.90;;
79375;SDS011;68846;53.150;18.136;2023-05-16T00:40:56;5.40;;;4.50;;
79375;SDS011;68846;53.150;18.136;2023-05-16T00:43:23;6.10;;;5.50;;
79375;SDS011;68846;53.150;18.136;2023-05-16T00:48:15;6.50;;;5.40;;
79375;SDS011;68846;53.150;18.136;2023-05-16T00:50:42;6.90;;;5.70;;
79375;SDS011;68846;53.150;18.136;2023-05-16T00:53:08;7.20;;;5.30;;
79375;SDS011;68846;53.150;18.136;2023-05-16T00:55:35;5.70;;;5.00;;
79375;SDS011;68846;53.150;18.136;2023-05-16T00:58:03;5.20;;;4.40;;
79375;SDS011;68846;53.150;18.136;2023-05-16T01:00:30;6.30;;;4.30;;
79375;SDS011;68846;53.150;18.136;2023-05-16T01:02:57;5.70;;;4.70;;
79375;SDS011;68846;53.150;18.136;2023-05-16T01:05:25;8.10;;;5.40;;
79375;SDS011;68846;53.150;18.136;2023-05-16T01:07:51;5.40;;;4.60;;
79375;SDS011;68846;53.150;18.136;2023-05-16T01:10:17;7.70;;;5.20;;
79375;SDS011;68846;53.150;18.136;2023-05-16T01:13:31;6.30;;;4.60;;
79375;SDS011;68846;53.150;18.136;2023-05-16T01:15:49;7.50;;;4.70;;
79375;SDS011;68846;53.150;18.136;2023-05-16T01:18:28;8.80;;;4.60;;
79375;SDS011;68846;53.150;18.136;2023-05-16T01:21:03;5.70;;;4.40;;
79375;SDS011;68846;53.150;18.136;2023-05-16T01:26:46;6.10;;;5.20;;
79375;SDS011;68846;53.150;18.136;2023-05-16T01:29:14;5.90;;;5.10;;
79375;SDS011;68846;53.150;18.136;2023-05-16T01:31:41;6.60;;;5.50;;
79375;SDS011;68846;53.150;18.136;2023-05-16T01:34:07;6.40;;;4.70;;
79375;SDS011;68846;53.150;18.136;2023-05-16T01:42:25;6.40;;;4.60;;
79375;SDS011;68846;53.150;18.136;2023-05-16T01:45:22;6.20;;;4.80;;
79375;SDS011;68846;53.150;18.136;2023-05-16T01:47:33;5.00;;;4.30;;
79375;SDS011;68846;53.150;18.136;2023-05-16T01:52:37;7.20;;;5.50;;
79375;SDS011;68846;53.150;18.136;2023-05-16T01:55:10;6.10;;;5.30;;
79375;SDS011;68846;53.150;18.136;2023-05-16T01:57:41;5.80;;;5.20;;
79375;SDS011;68846;53.150;18.136;2023-05-16T02:00:09;6.80;;;5.00;;
79375;SDS011;68846;53.150;18.136;2023-05-16T02:02:39;6.00;;;4.50;;
79375;SDS011;68846;53.150;18.136;2023-05-16T02:05:06;6.00;;;4.70;;
79375;SDS011;68846;53.150;18.136;2023-05-16T02:07:33;5.20;;;4.10;;
79375;SDS011;68846;53.150;18.136;2023-05-16T02:09:59;6.90;;;4.50;;
79375;SDS011;68846;53.150;18.136;2023-05-16T02:12:25;7.00;;;4.10;;
79375;SDS011;68846;53.150;18.136;2023-05-16T02:14:52;7.20;;;4.40;;
79375;SDS011;68846;53.150;18.136;2023-05-16T02:17:18;5.70;;;4.70;;
79375;SDS011;68846;53.150;18.136;2023-05-16T02:19:44;4.70;;;4.20;;
79375;SDS011;68846;53.150;18.136;2023-05-16T02:22:10;7.10;;;5.10;;
79375;SDS011;68846;53.150;18.136;2023-05-16T02:24:36;5.50;;;3.60;;
79375;SDS011;68846;53.150;18.136;2023-05-16T02:27:02;4.20;;;3.80;;
79375;SDS011;68846;53.150;18.136;2023-05-16T02:29:29;6.00;;;3.60;;
79375;SDS011;68846;53.150;18.136;2023-05-16T02:31:55;4.10;;;3.40;;
79375;SDS011;68846;53.150;18.136;2023-05-16T02:34:21;6.00;;;3.40;;
79375;SDS011;68846;53.150;18.136;2023-05-16T02:36:48;4.20;;;3.10;;
79375;SDS011;68846;53.150;18.136;2023-05-16T02:39:14;4.50;;;3.30;;
79375;SDS011;68846;53.150;18.136;2023-05-16T02:41:40;4.30;;;3.20;;
79375;SDS011;68846;53.150;18.136;2023-05-16T02:44:07;3.80;;;3.30;;
79375;SDS011;68846;53.150;18.136;2023-05-16T02:46:34;6.30;;;3.50;;
79375;SDS011;68846;53.150;18.136;2023-05-16T02:49:03;3.50;;;3.00;;
79375;SDS011;68846;53.150;18.136;2023-05-16T02:51:29;4.10;;;3.30;;
79375;SDS011;68846;53.150;18.136;2023-05-16T02:53:55;3.20;;;2.90;;
79375;SDS011;68846;53.150;18.136;2023-05-16T02:56:30;2.60;;;2.40;;
79375;SDS011;68846;53.150;18.136;2023-05-16T02:58:56;3.00;;;2.70;;
79375;SDS011;68846;53.150;18.136;2023-05-16T03:01:22;3.80;;;2.50;;
79375;SDS011;68846;53.150;18.136;2023-05-16T03:03:48;3.70;;;2.60;;
79375;SDS011;68846;53.150;18.136;2023-05-16T03:06:15;3.40;;;2.70;;
79375;SDS011;68846;53.150;18.136;2023-05-16T03:08:41;3.60;;;2.90;;
79375;SDS011;68846;53.150;18.136;2023-05-16T03:11:07;4.50;;;2.80;;
79375;SDS011;68846;53.150;18.136;2023-05-16T03:13:34;2.60;;;2.10;;
79375;SDS011;68846;53.150;18.136;2023-05-16T03:16:00;2.30;;;1.80;;
79375;SDS011;68846;53.150;18.136;2023-05-16T03:18:27;3.50;;;2.20;;
79375;SDS011;68846;53.150;18.136;2023-05-16T03:20:53;2.90;;;2.10;;
79375;SDS011;68846;53.150;18.136;2023-05-16T03:23:22;2.70;;;2.30;;
79375;SDS011;68846;53.150;18.136;2023-05-16T03:25:48;3.70;;;2.00;;
79375;SDS011;68846;53.150;18.136;2023-05-16T03:28:19;2.70;;;1.80;;
79375;SDS011;68846;53.150;18.136;2023-05-16T03:30:46;5.50;;;2.40;;
79375;SDS011;68846;53.150;18.136;2023-05-16T03:33:12;3.20;;;2.00;;
79375;SDS011;68846;53.150;18.136;2023-05-16T03:35:38;2.40;;;1.80;;
79375;SDS011;68846;53.150;18.136;2023-05-16T03:38:05;2.90;;;1.80;;
79375;SDS011;68846;53.150;18.136;2023-05-16T03:40:32;2.70;;;1.60;;
79375;SDS011;68846;53.150;18.136;2023-05-16T03:42:58;2.00;;;1.50;;
79375;SDS011;68846;53.150;18.136;2023-05-16T03:45:24;2.80;;;1.90;;
79375;SDS011;68846;53.150;18.136;2023-05-16T03:47:50;2.80;;;1.80;;
79375;SDS011;68846;53.150;18.136;2023-05-16T03:50:17;2.70;;;1.70;;
79375;SDS011;68846;53.150;18.136;2023-05-16T03:52:43;2.10;;;1.80;;
79375;SDS011;68846;53.150;18.136;2023-05-16T03:55:09;1.90;;;1.60;;
79375;SDS011;68846;53.150;18.136;2023-05-16T03:57:38;2.20;;;1.60;;
79375;SDS011;68846;53.150;18.136;2023-05-16T04:00:05;2.00;;;1.80;;
79375;SDS011;68846;53.150;18.136;2023-05-16T04:02:37;2.50;;;1.80;;
79375;SDS011;68846;53.150;18.136;2023-05-16T04:05:07;2.50;;;1.50;;
79375;SDS011;68846;53.150;18.136;2023-05-16T04:07:35;2.80;;;2.00;;
79375;SDS011;68846;53.150;18.136;2023-05-16T04:10:02;2.80;;;2.00;;
79375;SDS011;68846;53.150;18.136;2023-05-16T04:12:30;2.50;;;2.00;;
79375;SDS011;68846;53.150;18.136;2023-05-16T04:14:56;2.30;;;1.80;;
79375;SDS011;68846;53.150;18.136;2023-05-16T04:17:22;3.40;;;1.80;;
79375;SDS011;68846;53.150;18.136;2023-05-16T04:19:48;3.10;;;1.60;;
79375;SDS011;68846;53.150;18.136;2023-05-16T04:22:15;2.00;;;1.60;;
79375;SDS011;68846;53.150;18.136;2023-05-16T04:24:41;1.60;;;1.40;;
79375;SDS011;68846;53.150;18.136;2023-05-16T04:27:07;2.20;;;1.70;;
79375;SDS011;68846;53.150;18.136;2023-05-16T04:29:34;2.00;;;1.50;;
79375;SDS011;68846;53.150;18.136;2023-05-16T04:32:01;2.30;;;1.70;;
79375;SDS011;68846;53.150;18.136;2023-05-16T04:34:27;3.40;;;1.50;;
79375;SDS011;68846;53.150;18.136;2023-05-16T04:36:53;2.40;;;1.80;;
79375;SDS011;68846;53.150;18.136;2023-05-16T04:39:20;1.80;;;1.60;;
79375;SDS011;68846;53.150;18.136;2023-05-16T04:41:46;2.30;;;1.60;;
79375;SDS011;68846;53.150;18.136;2023-05-16T04:44:13;2.20;;;1.70;;
79375;SDS011;68846;53.150;18.136;2023-05-16T04:46:39;1.80;;;1.70;;
79375;SDS011;68846;53.150;18.136;2023-05-16T04:49:06;1.60;;;1.20;;
79375;SDS011;68846;53.150;18.136;2023-05-16T04:51:33;2.40;;;2.00;;
79375;SDS011;68846;53.150;18.136;2023-05-16T04:56:25;1.80;;;1.40;;
79375;SDS011;68846;53.150;18.136;2023-05-16T04:58:51;2.80;;;2.00;;
79375;SDS011;68846;53.150;18.136;2023-05-16T05:01:19;2.00;;;1.60;;
79375;SDS011;68846;53.150;18.136;2023-05-16T05:03:45;2.70;;;1.70;;
79375;SDS011;68846;53.150;18.136;2023-05-16T05:06:11;2.10;;;1.40;;
79375;SDS011;68846;53.150;18.136;2023-05-16T05:08:37;2.00;;;1.50;;
79375;SDS011;68846;53.150;18.136;2023-05-16T05:11:04;2.00;;;1.70;;
79375;SDS011;68846;53.150;18.136;2023-05-16T05:13:30;2.90;;;1.90;;
79375;SDS011;68846;53.150;18.136;2023-05-16T05:15:56;3.10;;;1.90;;
79375;SDS011;68846;53.150;18.136;2023-05-16T05:18:22;4.60;;;2.00;;
79375;SDS011;68846;53.150;18.136;2023-05-16T05:20:49;5.40;;;2.30;;
79375;SDS011;68846;53.150;18.136;2023-05-16T05:23:15;2.90;;;1.80;;
79375;SDS011;68846;53.150;18.136;2023-05-16T05:25:42;3.90;;;1.80;;
79375;SDS011;68846;53.150;18.136;2023-05-16T05:28:08;2.10;;;1.80;;
79375;SDS011;68846;53.150;18.136;2023-05-16T05:30:34;4.50;;;1.80;;
79375;SDS011;68846;53.150;18.136;2023-05-16T05:33:00;3.50;;;1.90;;
79375;SDS011;68846;53.150;18.136;2023-05-16T05:35:26;3.70;;;2.60;;
79375;SDS011;68846;53.150;18.136;2023-05-16T05:37:52;3.50;;;2.50;;
79375;SDS011;68846;53.150;18.136;2023-05-16T05:40:18;4.20;;;2.60;;
79375;SDS011;68846;53.150;18.136;2023-05-16T05:42:44;4.20;;;2.80;;
79375;SDS011;68846;53.150;18.136;2023-05-16T05:45:10;3.70;;;2.30;;
79375;SDS011;68846;53.150;18.136;2023-05-16T05:47:37;3.20;;;2.50;;
79375;SDS011;68846;53.150;18.136;2023-05-16T05:52:30;3.00;;;2.40;;
79375;SDS011;68846;53.150;18.136;2023-05-16T05:54:56;4.40;;;2.80;;
79375;SDS011;68846;53.150;18.136;2023-05-16T05:57:24;2.40;;;2.20;;
79375;SDS011;68846;53.150;18.136;2023-05-16T05:59:50;2.60;;;2.20;;
79375;SDS011;68846;53.150;18.136;2023-05-16T06:02:16;5.60;;;2.50;;
79375;SDS011;68846;53.150;18.136;2023-05-16T06:04:43;3.00;;;2.50;;
79375;SDS011;68846;53.150;18.136;2023-05-16T06:07:10;2.90;;;2.20;;
79375;SDS011;68846;53.150;18.136;2023-05-16T06:09:36;2.60;;;2.00;;
79375;SDS011;68846;53.150;18.136;2023-05-16T06:12:02;3.20;;;2.10;;
79375;SDS011;68846;53.150;18.136;2023-05-16T06:14:28;3.20;;;2.20;;
79375;SDS011;68846;53.150;18.136;2023-05-16T06:16:56;3.10;;;2.20;;
79375;SDS011;68846;53.150;18.136;2023-05-16T06:19:23;3.20;;;2.40;;
79375;SDS011;68846;53.150;18.136;2023-05-16T06:21:49;4.10;;;2.40;;
79375;SDS011;68846;53.150;18.136;2023-05-16T06:24:15;5.90;;;2.50;;
79375;SDS011;68846;53.150;18.136;2023-05-16T06:26:41;6.50;;;2.40;;
79375;SDS011;68846;53.150;18.136;2023-05-16T06:29:10;5.70;;;2.50;;
79375;SDS011;68846;53.150;18.136;2023-05-16T06:31:37;4.40;;;2.10;;
79375;SDS011;68846;53.150;18.136;2023-05-16T06:34:03;3.10;;;2.30;;
79375;SDS011;68846;53.150;18.136;2023-05-16T06:36:29;3.90;;;2.50;;
79375;SDS011;68846;53.150;18.136;2023-05-16T06:38:55;4.20;;;2.60;;
79375;SDS011;68846;53.150;18.136;2023-05-16T06:41:21;2.80;;;2.60;;
79375;SDS011;68846;53.150;18.136;2023-05-16T06:43:48;6.20;;;2.90;;
79375;SDS011;68846;53.150;18.136;2023-05-16T06:46:14;3.60;;;2.40;;
79375;SDS011;68846;53.150;18.136;2023-05-16T06:48:40;6.20;;;2.40;;
79375;SDS011;68846;53.150;18.136;2023-05-16T06:51:07;6.90;;;2.70;;
79375;SDS011;68846;53.150;18.136;2023-05-16T06:55:59;6.60;;;3.30;;
79375;SDS011;68846;53.150;18.136;2023-05-16T06:58:25;3.40;;;2.90;;
79375;SDS011;68846;53.150;18.136;2023-05-16T07:00:52;3.50;;;3.00;;
79375;SDS011;68846;53.150;18.136;2023-05-16T07:03:18;4.30;;;2.80;;
79375;SDS011;68846;53.150;18.136;2023-05-16T07:05:44;4.80;;;2.80;;
79375;SDS011;68846;53.150;18.136;2023-05-16T07:08:10;3.30;;;2.50;;
79375;SDS011;68846;53.150;18.136;2023-05-16T07:10:37;3.80;;;2.20;;
79375;SDS011;68846;53.150;18.136;2023-05-16T07:13:04;3.80;;;3.10;;
79375;SDS011;68846;53.150;18.136;2023-05-16T07:15:30;5.50;;;2.90;;
79375;SDS011;68846;53.150;18.136;2023-05-16T07:17:57;4.20;;;3.10;;
79375;SDS011;68846;53.150;18.136;2023-05-16T07:20:23;3.90;;;2.80;;
79375;SDS011;68846;53.150;18.136;2023-05-16T07:22:50;3.90;;;3.20;;
79375;SDS011;68846;53.150;18.136;2023-05-16T07:25:16;6.90;;;3.30;;
79375;SDS011;68846;53.150;18.136;2023-05-16T07:30:12;4.10;;;3.00;;
79375;SDS011;68846;53.150;18.136;2023-05-16T07:32:39;4.10;;;3.00;;
79375;SDS011;68846;53.150;18.136;2023-05-16T07:35:06;4.60;;;3.20;;
79375;SDS011;68846;53.150;18.136;2023-05-16T07:37:32;4.50;;;3.10;;
79375;SDS011;68846;53.150;18.136;2023-05-16T07:39:58;8.70;;;3.40;;
79375;SDS011;68846;53.150;18.136;2023-05-16T07:42:24;4.10;;;3.10;;
79375;SDS011;68846;53.150;18.136;2023-05-16T07:44:50;4.50;;;3.60;;
79375;SDS011;68846;53.150;18.136;2023-05-16T07:47:17;3.90;;;2.70;;
79375;SDS011;68846;53.150;18.136;2023-05-16T07:49:43;4.60;;;2.80;;
79375;SDS011;68846;53.150;18.136;2023-05-16T07:52:09;4.20;;;2.90;;
79375;SDS011;68846;53.150;18.136;2023-05-16T07:54:36;4.40;;;3.00;;
79375;SDS011;68846;53.150;18.136;2023-05-16T07:57:02;6.40;;;3.20;;
79375;SDS011;68846;53.150;18.136;2023-05-16T07:59:28;5.90;;;3.20;;
79375;SDS011;68846;53.150;18.136;2023-05-16T08:01:55;4.10;;;3.30;;
79375;SDS011;68846;53.150;18.136;2023-05-16T08:04:22;4.80;;;3.40;;
79375;SDS011;68846;53.150;18.136;2023-05-16T08:06:48;4.00;;;3.00;;
79375;SDS011;68846;53.150;18.136;2023-05-16T08:09:14;5.10;;;3.10;;
79375;SDS011;68846;53.150;18.136;2023-05-16T08:11:40;5.10;;;3.10;;
79375;SDS011;68846;53.150;18.136;2023-05-16T08:14:09;2.80;;;2.40;;
79375;SDS011;68846;53.150;18.136;2023-05-16T08:16:36;2.80;;;2.50;;
79375;SDS011;68846;53.150;18.136;2023-05-16T08:19:02;3.90;;;2.70;;
79375;SDS011;68846;53.150;18.136;2023-05-16T08:21:28;4.20;;;3.20;;
79375;SDS011;68846;53.150;18.136;2023-05-16T08:23:56;5.60;;;3.00;;
79375;SDS011;68846;53.150;18.136;2023-05-16T08:26:23;5.00;;;3.10;;
79375;SDS011;68846;53.150;18.136;2023-05-16T08:28:49;4.10;;;2.80;;
79375;SDS011;68846;53.150;18.136;2023-05-16T08:31:16;3.30;;;2.80;;
79375;SDS011;68846;53.150;18.136;2023-05-16T08:33:42;2.50;;;2.20;;
79375;SDS011;68846;53.150;18.136;2023-05-16T08:36:08;3.60;;;2.60;;
79375;SDS011;68846;53.150;18.136;2023-05-16T08:38:35;4.10;;;2.90;;
79375;SDS011;68846;53.150;18.136;2023-05-16T08:43:27;5.50;;;2.50;;
79375;SDS011;68846;53.150;18.136;2023-05-16T08:45:54;3.30;;;2.70;;
79375;SDS011;68846;53.150;18.136;2023-05-16T08:50:48;3.40;;;3.00;;
79375;SDS011;68846;53.150;18.136;2023-05-16T08:53:16;4.20;;;2.70;;
79375;SDS011;68846;53.150;18.136;2023-05-16T08:55:51;5.00;;;2.90;;
79375;SDS011;68846;53.150;18.136;2023-05-16T08:58:18;4.60;;;2.80;;
79375;SDS011;68846;53.150;18.136;2023-05-16T09:00:45;3.50;;;2.60;;
79375;SDS011;68846;53.150;18.136;2023-05-16T09:03:12;2.50;;;1.50;;
79375;SDS011;68846;53.150;18.136;2023-05-16T09:05:38;5.40;;;2.50;;
79375;SDS011;68846;53.150;18.136;2023-05-16T09:08:05;3.20;;;2.90;;
79375;SDS011;68846;53.150;18.136;2023-05-16T09:10:32;4.80;;;3.00;;
79375;SDS011;68846;53.150;18.136;2023-05-16T09:12:58;3.80;;;2.90;;
79375;SDS011;68846;53.150;18.136;2023-05-16T09:15:29;3.90;;;2.80;;
79375;SDS011;68846;53.150;18.136;2023-05-16T09:17:58;3.90;;;2.70;;
79375;SDS011;68846;53.150;18.136;2023-05-16T09:20:25;4.60;;;2.40;;
79375;SDS011;68846;53.150;18.136;2023-05-16T09:22:55;3.30;;;2.50;;
79375;SDS011;68846;53.150;18.136;2023-05-16T09:25:24;3.10;;;2.10;;
79375;SDS011;68846;53.150;18.136;2023-05-16T09:27:55;3.30;;;2.70;;
79375;SDS011;68846;53.150;18.136;2023-05-16T09:30:26;2.60;;;2.40;;
79375;SDS011;68846;53.150;18.136;2023-05-16T09:32:54;3.40;;;2.30;;
79375;SDS011;68846;53.150;18.136;2023-05-16T09:35:21;3.40;;;2.40;;
79375;SDS011;68846;53.150;18.136;2023-05-16T09:37:49;4.30;;;2.20;;
79375;SDS011;68846;53.150;18.136;2023-05-16T09:40:19;2.70;;;2.50;;
79375;SDS011;68846;53.150;18.136;2023-05-16T09:42:52;4.40;;;2.60;;
79375;SDS011;68846;53.150;18.136;2023-05-16T09:45:27;2.30;;;2.10;;
79375;SDS011;68846;53.150;18.136;2023-05-16T09:47:53;4.40;;;2.40;;
79375;SDS011;68846;53.150;18.136;2023-05-16T09:50:23;4.20;;;2.40;;
79375;SDS011;68846;53.150;18.136;2023-05-16T09:52:49;6.30;;;2.50;;
79375;SDS011;68846;53.150;18.136;2023-05-16T09:55:16;4.70;;;2.60;;
79375;SDS011;68846;53.150;18.136;2023-05-16T09:57:42;2.60;;;2.30;;
79375;SDS011;68846;53.150;18.136;2023-05-16T10:00:11;3.00;;;2.50;;
79375;SDS011;68846;53.150;18.136;2023-05-16T10:02:38;3.40;;;2.60;;
79375;SDS011;68846;53.150;18.136;2023-05-16T10:05:06;3.90;;;2.20;;
79375;SDS011;68846;53.150;18.136;2023-05-16T10:07:33;3.60;;;2.00;;
79375;SDS011;68846;53.150;18.136;2023-05-16T10:12:30;3.10;;;2.20;;
79375;SDS011;68846;53.150;18.136;2023-05-16T10:15:02;2.20;;;1.90;;
79375;SDS011;68846;53.150;18.136;2023-05-16T10:17:30;2.50;;;2.30;;
79375;SDS011;68846;53.150;18.136;2023-05-16T10:20:00;2.80;;;2.00;;
79375;SDS011;68846;53.150;18.136;2023-05-16T10:22:34;4.50;;;2.30;;
79375;SDS011;68846;53.150;18.136;2023-05-16T10:25:11;3.00;;;2.20;;
79375;SDS011;68846;53.150;18.136;2023-05-16T10:27:45;2.80;;;2.10;;
79375;SDS011;68846;53.150;18.136;2023-05-16T10:30:12;4.30;;;2.10;;
79375;SDS011;68846;53.150;18.136;2023-05-16T10:32:39;2.40;;;1.80;;
79375;SDS011;68846;53.150;18.136;2023-05-16T10:35:07;2.30;;;2.10;;
79375;SDS011;68846;53.150;18.136;2023-05-16T10:37:34;2.10;;;1.80;;
79375;SDS011;68846;53.150;18.136;2023-05-16T10:40:01;2.40;;;2.20;;
79375;SDS011;68846;53.150;18.136;2023-05-16T10:42:31;2.20;;;2.00;;
79375;SDS011;68846;53.150;18.136;2023-05-16T10:45:08;2.60;;;2.00;;
79375;SDS011;68846;53.150;18.136;2023-05-16T10:47:44;5.00;;;2.20;;
79375;SDS011;68846;53.150;18.136;2023-05-16T10:50:29;2.70;;;2.10;;
79375;SDS011;68846;53.150;18.136;2023-05-16T10:55:39;5.40;;;2.20;;
79375;SDS011;68846;53.150;18.136;2023-05-16T10:58:22;2.80;;;2.10;;
79375;SDS011;68846;53.150;18.136;2023-05-16T11:06:30;3.30;;;2.50;;
79375;SDS011;68846;53.150;18.136;2023-05-16T11:17:02;2.80;;;2.20;;
79375;SDS011;68846;53.150;18.136;2023-05-16T11:22:24;3.30;;;3.00;;
79375;SDS011;68846;53.150;18.136;2023-05-16T11:27:23;2.80;;;2.30;;
79375;SDS011;68846;53.150;18.136;2023-05-16T11:29:51;3.30;;;2.40;;
79375;SDS011;68846;53.150;18.136;2023-05-16T11:32:19;5.50;;;2.60;;
79375;SDS011;68846;53.150;18.136;2023-05-16T11:34:48;4.40;;;2.30;;
79375;SDS011;68846;53.150;18.136;2023-05-16T11:37:16;2.50;;;2.30;;
79375;SDS011;68846;53.150;18.136;2023-05-16T11:39:44;4.80;;;2.90;;
79375;SDS011;68846;53.150;18.136;2023-05-16T11:42:11;2.80;;;2.50;;
79375;SDS011;68846;53.150;18.136;2023-05-16T11:47:05;3.30;;;2.50;;
79375;SDS011;68846;53.150;18.136;2023-05-16T11:49:32;2.80;;;2.50;;
79375;SDS011;68846;53.150;18.136;2023-05-16T11:52:00;3.90;;;2.70;;
79375;SDS011;68846;53.150;18.136;2023-05-16T11:54:27;3.20;;;2.60;;
79375;SDS011;68846;53.150;18.136;2023-05-16T11:56:53;3.50;;;2.80;;
79375;SDS011;68846;53.150;18.136;2023-05-16T11:59:19;5.60;;;2.70;;
79375;SDS011;68846;53.150;18.136;2023-05-16T12:01:46;3.60;;;2.50;;
79375;SDS011;68846;53.150;18.136;2023-05-16T12:04:14;5.90;;;3.00;;
79375;SDS011;68846;53.150;18.136;2023-05-16T12:06:42;4.90;;;3.00;;
79375;SDS011;68846;53.150;18.136;2023-05-16T12:09:13;4.00;;;3.00;;
79375;SDS011;68846;53.150;18.136;2023-05-16T12:11:41;4.70;;;2.70;;
79375;SDS011;68846;53.150;18.136;2023-05-16T12:14:11;5.50;;;3.10;;
79375;SDS011;68846;53.150;18.136;2023-05-16T12:16:38;3.70;;;3.00;;
79375;SDS011;68846;53.150;18.136;2023-05-16T12:19:11;4.90;;;2.90;;
79375;SDS011;68846;53.150;18.136;2023-05-16T12:21:37;3.20;;;2.90;;
79375;SDS011;68846;53.150;18.136;2023-05-16T12:24:04;3.90;;;2.80;;
79375;SDS011;68846;53.150;18.136;2023-05-16T12:26:33;3.70;;;3.00;;
79375;SDS011;68846;53.150;18.136;2023-05-16T12:29:01;4.30;;;2.70;;
79375;SDS011;68846;53.150;18.136;2023-05-16T12:31:30;3.20;;;2.60;;
79375;SDS011;68846;53.150;18.136;2023-05-16T12:34:01;3.20;;;2.90;;
79375;SDS011;68846;53.150;18.136;2023-05-16T12:36:30;3.20;;;2.90;;
79375;SDS011;68846;53.150;18.136;2023-05-16T12:39:00;3.80;;;2.80;;
79375;SDS011;68846;53.150;18.136;2023-05-16T12:41:28;3.20;;;2.60;;
79375;SDS011;68846;53.150;18.136;2023-05-16T12:44:05;3.90;;;3.20;;
79375;SDS011;68846;53.150;18.136;2023-05-16T12:46:39;4.40;;;3.30;;
79375;SDS011;68846;53.150;18.136;2023-05-16T12:49:07;5.90;;;3.40;;
79375;SDS011;68846;53.150;18.136;2023-05-16T12:51:33;4.10;;;3.20;;
79375;SDS011;68846;53.150;18.136;2023-05-16T12:54:05;5.60;;;3.20;;
79375;SDS011;68846;53.150;18.136;2023-05-16T12:56:42;3.80;;;3.30;;
79375;SDS011;68846;53.150;18.136;2023-05-16T12:59:08;4.60;;;2.90;;
79375;SDS011;68846;53.150;18.136;2023-05-16T13:01:37;5.50;;;3.00;;
79375;SDS011;68846;53.150;18.136;2023-05-16T13:04:03;5.00;;;3.00;;
79375;SDS011;68846;53.150;18.136;2023-05-16T13:06:29;3.60;;;3.20;;
79375;SDS011;68846;53.150;18.136;2023-05-16T13:08:57;4.30;;;3.30;;
79375;SDS011;68846;53.150;18.136;2023-05-16T13:11:24;3.50;;;3.20;;
79375;SDS011;68846;53.150;18.136;2023-05-16T13:13:51;3.50;;;3.00;;
79375;SDS011;68846;53.150;18.136;2023-05-16T13:18:43;4.60;;;3.20;;
79375;SDS011;68846;53.150;18.136;2023-05-16T13:21:10;3.60;;;2.90;;
79375;SDS011;68846;53.150;18.136;2023-05-16T13:23:36;8.10;;;4.60;;
79375;SDS011;68846;53.150;18.136;2023-05-16T13:26:02;5.10;;;4.30;;
79375;SDS011;68846;53.150;18.136;2023-05-16T13:28:30;6.10;;;4.80;;
79375;SDS011;68846;53.150;18.136;2023-05-16T13:30:56;5.80;;;4.70;;
79375;SDS011;68846;53.150;18.136;2023-05-16T13:33:23;6.20;;;5.00;;
79375;SDS011;68846;53.150;18.136;2023-05-16T13:35:49;5.80;;;5.10;;
79375;SDS011;68846;53.150;18.136;2023-05-16T13:38:16;6.30;;;5.30;;
79375;SDS011;68846;53.150;18.136;2023-05-16T13:40:43;7.90;;;5.00;;
79375;SDS011;68846;53.150;18.136;2023-05-16T13:43:10;8.00;;;4.90;;
79375;SDS011;68846;53.150;18.136;2023-05-16T13:45:39;6.80;;;5.40;;
79375;SDS011;68846;53.150;18.136;2023-05-16T13:48:05;6.80;;;5.70;;
79375;SDS011;68846;53.150;18.136;2023-05-16T13:50:32;7.20;;;5.60;;
79375;SDS011;68846;53.150;18.136;2023-05-16T13:55:24;6.50;;;5.90;;
79375;SDS011;68846;53.150;18.136;2023-05-16T13:57:51;9.10;;;5.70;;
79375;SDS011;68846;53.150;18.136;2023-05-16T14:00:17;6.30;;;5.60;;
79375;SDS011;68846;53.150;18.136;2023-05-16T14:02:43;7.70;;;5.70;;
79375;SDS011;68846;53.150;18.136;2023-05-16T14:05:10;8.50;;;6.30;;
79375;SDS011;68846;53.150;18.136;2023-05-16T14:07:36;8.10;;;5.90;;
79375;SDS011;68846;53.150;18.136;2023-05-16T14:10:02;6.40;;;5.70;;
79375;SDS011;68846;53.150;18.136;2023-05-16T14:12:29;7.10;;;5.40;;
79375;SDS011;68846;53.150;18.136;2023-05-16T14:14:56;11.10;;;5.80;;
79375;SDS011;68846;53.150;18.136;2023-05-16T14:19:48;6.30;;;4.80;;
79375;SDS011;68846;53.150;18.136;2023-05-16T14:22:14;8.80;;;5.30;;
79375;SDS011;68846;53.150;18.136;2023-05-16T14:24:43;6.10;;;5.30;;
79375;SDS011;68846;53.150;18.136;2023-05-16T14:27:09;7.30;;;5.40;;
79375;SDS011;68846;53.150;18.136;2023-05-16T14:29:35;8.30;;;5.60;;
79375;SDS011;68846;53.150;18.136;2023-05-16T14:32:02;8.00;;;6.20;;
79375;SDS011;68846;53.150;18.136;2023-05-16T14:34:28;6.80;;;5.00;;
79375;SDS011;68846;53.150;18.136;2023-05-16T14:39:21;6.20;;;5.30;;
79375;SDS011;68846;53.150;18.136;2023-05-16T14:41:47;7.80;;;5.60;;
79375;SDS011;68846;53.150;18.136;2023-05-16T14:44:13;9.40;;;5.40;;
79375;SDS011;68846;53.150;18.136;2023-05-16T14:46:40;7.10;;;5.50;;
79375;SDS011;68846;53.150;18.136;2023-05-16T14:49:06;7.30;;;5.90;;
79375;SDS011;68846;53.150;18.136;2023-05-16T14:51:33;9.60;;;5.70;;
79375;SDS011;68846;53.150;18.136;2023-05-16T14:54:00;7.20;;;5.40;;
79375;SDS011;68846;53.150;18.136;2023-05-16T14:56:26;7.80;;;5.70;;
79375;SDS011;68846;53.150;18.136;2023-05-16T14:58:53;6.20;;;5.50;;
79375;SDS011;68846;53.150;18.136;2023-05-16T15:01:19;6.00;;;5.10;;
79375;SDS011;68846;53.150;18.136;2023-05-16T15:03:45;7.80;;;5.40;;
79375;SDS011;68846;53.150;18.136;2023-05-16T15:06:11;6.90;;;5.60;;
79375;SDS011;68846;53.150;18.136;2023-05-16T15:08:37;7.40;;;5.80;;
79375;SDS011;68846;53.150;18.136;2023-05-16T15:11:04;6.70;;;5.70;;
79375;SDS011;68846;53.150;18.136;2023-05-16T15:13:30;8.50;;;5.80;;
79375;SDS011;68846;53.150;18.136;2023-05-16T15:15:56;8.30;;;6.00;;
79375;SDS011;68846;53.150;18.136;2023-05-16T15:18:23;7.60;;;6.00;;
79375;SDS011;68846;53.150;18.136;2023-05-16T15:20:49;7.20;;;5.70;;
79375;SDS011;68846;53.150;18.136;2023-05-16T15:23:17;8.10;;;5.90;;
79375;SDS011;68846;53.150;18.136;2023-05-16T15:28:10;8.40;;;6.10;;
79375;SDS011;68846;53.150;18.136;2023-05-16T15:30:37;12.10;;;6.30;;
79375;SDS011;68846;53.150;18.136;2023-05-16T15:33:03;10.50;;;6.50;;
79375;SDS011;68846;53.150;18.136;2023-05-16T15:35:29;10.50;;;7.20;;
79375;SDS011;68846;53.150;18.136;2023-05-16T15:37:55;12.90;;;6.30;;
79375;SDS011;68846;53.150;18.136;2023-05-16T15:40:24;8.80;;;6.40;;
79375;SDS011;68846;53.150;18.136;2023-05-16T15:45:16;9.60;;;7.00;;